Almond, Alabama
Current Conditions -  °F | °C
As of 8:15 AM on Saturday 01 Nov 2014 (Local Time) from KLGC Reporting Station
Overcast Overcast  
Wind Chill: 37°   Ceiling: 3600
Heat Index: 44°   Visibility: 10mi
Dew Point: 32°   Wind: 13mph
Humidity: 64%   Direction: 320°NW
Pressure: 30.07"   Gusts: 21mph
Location:  33.1661°N, 85.5111°W
Report Text: KLGC 011315Z AUTO 32011G18KT 10SM OVC036 06/00 A3007 RMK AO2 T00640000
Loading
Personal Weather Stations






























Interactive Weather Map
Tropical Storm Tracking
New forecast layout! Learn more

10-Day Weather Forecast

Advertisements
Track Severe Weather on mobile